sensor_id;sensor_type;location;lat;lon;timestamp;pressure;altitude;pressure_sealevel;temperature;humidity
55610;BME280;41486;52.502;13.486;2022-10-16T00:01:22;100598.00;;;13.90;100.00
55610;BME280;41486;52.502;13.486;2022-10-16T00:03:51;100597.72;;;13.83;100.00
55610;BME280;41486;52.502;13.486;2022-10-16T00:06:20;100603.00;;;13.83;100.00
55610;BME280;41486;52.502;13.486;2022-10-16T00:08:50;100610.28;;;13.81;100.00
55610;BME280;41486;52.502;13.486;2022-10-16T00:11:21;100604.69;;;13.75;100.00
55610;BME280;41486;52.502;13.486;2022-10-16T00:13:50;100613.47;;;13.95;100.00
55610;BME280;41486;52.502;13.486;2022-10-16T00:16:19;100613.63;;;13.93;100.00
55610;BME280;41486;52.502;13.486;2022-10-16T00:18:47;100615.66;;;14.19;100.00
55610;BME280;41486;52.502;13.486;2022-10-16T00:21:17;100608.88;;;14.07;100.00
55610;BME280;41486;52.502;13.486;2022-10-16T00:24:07;100613.44;;;14.14;100.00
55610;BME280;41486;52.502;13.486;2022-10-16T00:26:36;100606.50;;;14.13;100.00
55610;BME280;41486;52.502;13.486;2022-10-16T00:29:05;100612.75;;;14.12;100.00
55610;BME280;41486;52.502;13.486;2022-10-16T00:31:33;100619.25;;;14.38;100.00
55610;BME280;41486;52.502;13.486;2022-10-16T00:34:01;100629.72;;;14.29;100.00
55610;BME280;41486;52.502;13.486;2022-10-16T00:36:29;100625.53;;;14.36;100.00
55610;BME280;41486;52.502;13.486;2022-10-16T00:38:57;100626.78;;;14.42;100.00
55610;BME280;41486;52.502;13.486;2022-10-16T00:41:28;100628.72;;;14.50;100.00
55610;BME280;41486;52.502;13.486;2022-10-16T00:43:57;100629.94;;;14.56;100.00
55610;BME280;41486;52.502;13.486;2022-10-16T00:46:27;100628.69;;;14.60;100.00
55610;BME280;41486;52.502;13.486;2022-10-16T00:49:00;100623.09;;;14.73;100.00
55610;BME280;41486;52.502;13.486;2022-10-16T00:51:32;100621.66;;;14.88;100.00
55610;BME280;41486;52.502;13.486;2022-10-16T00:54:02;100621.66;;;14.78;100.00
55610;BME280;41486;52.502;13.486;2022-10-16T00:56:33;100630.03;;;14.83;100.00
55610;BME280;41486;52.502;13.486;2022-10-16T00:59:03;100629.44;;;14.90;100.00
55610;BME280;41486;52.502;13.486;2022-10-16T01:01:33;100635.47;;;14.82;100.00
55610;BME280;41486;52.502;13.486;2022-10-16T01:04:02;100636.84;;;14.86;100.00
55610;BME280;41486;52.502;13.486;2022-10-16T01:06:36;100639.53;;;15.04;100.00
55610;BME280;41486;52.502;13.486;2022-10-16T01:09:15;100641.66;;;15.01;100.00
55610;BME280;41486;52.502;13.486;2022-10-16T01:11:58;100639.16;;;14.99;100.00
55610;BME280;41486;52.502;13.486;2022-10-16T01:14:34;100636.25;;;14.92;100.00
55610;BME280;41486;52.502;13.486;2022-10-16T01:17:11;100632.56;;;15.03;100.00
55610;BME280;41486;52.502;13.486;2022-10-16T01:20:02;100640.25;;;15.06;100.00
55610;BME280;41486;52.502;13.486;2022-10-16T01:22:38;100638.81;;;15.12;100.00
55610;BME280;41486;52.502;13.486;2022-10-16T01:25:12;100651.44;;;15.00;100.00
55610;BME280;41486;52.502;13.486;2022-10-16T01:27:46;100641.53;;;15.02;100.00
55610;BME280;41486;52.502;13.486;2022-10-16T01:30:18;100654.78;;;14.92;100.00
55610;BME280;41486;52.502;13.486;2022-10-16T01:32:52;100651.38;;;14.82;100.00
55610;BME280;41486;52.502;13.486;2022-10-16T01:35:22;100654.78;;;15.02;100.00
55610;BME280;41486;52.502;13.486;2022-10-16T01:37:55;100659.50;;;15.08;100.00
55610;BME280;41486;52.502;13.486;2022-10-16T01:40:27;100658.00;;;14.96;100.00
55610;BME280;41486;52.502;13.486;2022-10-16T01:43:00;100666.78;;;14.96;100.00
55610;BME280;41486;52.502;13.486;2022-10-16T01:45:31;100662.94;;;14.81;100.00
55610;BME280;41486;52.502;13.486;2022-10-16T01:48:05;100665.72;;;14.79;100.00
55610;BME280;41486;52.502;13.486;2022-10-16T01:50:37;100668.34;;;14.89;100.00
55610;BME280;41486;52.502;13.486;2022-10-16T01:53:07;100667.66;;;14.87;100.00
55610;BME280;41486;52.502;13.486;2022-10-16T01:55:41;100665.97;;;14.86;100.00
55610;BME280;41486;52.502;13.486;2022-10-16T01:58:13;100670.75;;;14.82;100.00
55610;BME280;41486;52.502;13.486;2022-10-16T02:00:44;100671.66;;;14.91;100.00
55610;BME280;41486;52.502;13.486;2022-10-16T02:03:15;100672.00;;;14.78;100.00
55610;BME280;41486;52.502;13.486;2022-10-16T02:05:47;100677.28;;;14.88;100.00
55610;BME280;41486;52.502;13.486;2022-10-16T02:08:17;100677.66;;;14.93;100.00
55610;BME280;41486;52.502;13.486;2022-10-16T02:10:46;100680.44;;;15.02;100.00
55610;BME280;41486;52.502;13.486;2022-10-16T02:13:17;100675.72;;;14.95;100.00
55610;BME280;41486;52.502;13.486;2022-10-16T02:15:47;100677.13;;;14.90;100.00
55610;BME280;41486;52.502;13.486;2022-10-16T02:18:15;100687.28;;;14.94;100.00
55610;BME280;41486;52.502;13.486;2022-10-16T02:20:48;100688.84;;;14.87;100.00
55610;BME280;41486;52.502;13.486;2022-10-16T02:23:22;100698.81;;;15.03;100.00
55610;BME280;41486;52.502;13.486;2022-10-16T02:25:52;100701.19;;;15.06;100.00
55610;BME280;41486;52.502;13.486;2022-10-16T02:28:26;100713.91;;;15.03;100.00
55610;BME280;41486;52.502;13.486;2022-10-16T02:30:58;100696.81;;;15.15;100.00
55610;BME280;41486;52.502;13.486;2022-10-16T02:33:29;100694.72;;;15.19;100.00
55610;BME280;41486;52.502;13.486;2022-10-16T02:36:00;100687.94;;;15.06;100.00
55610;BME280;41486;52.502;13.486;2022-10-16T02:38:29;100688.31;;;15.21;100.00
55610;BME280;41486;52.502;13.486;2022-10-16T02:40:57;100691.56;;;15.05;100.00
55610;BME280;41486;52.502;13.486;2022-10-16T02:43:27;100699.63;;;15.13;100.00
55610;BME280;41486;52.502;13.486;2022-10-16T02:45:55;100703.94;;;15.14;100.00
55610;BME280;41486;52.502;13.486;2022-10-16T02:48:22;100693.31;;;15.24;100.00
55610;BME280;41486;52.502;13.486;2022-10-16T02:50:50;100695.19;;;15.14;100.00
55610;BME280;41486;52.502;13.486;2022-10-16T02:53:21;100704.88;;;15.33;100.00
55610;BME280;41486;52.502;13.486;2022-10-16T02:55:49;100706.28;;;15.27;100.00
55610;BME280;41486;52.502;13.486;2022-10-16T02:58:17;100703.31;;;15.30;100.00
55610;BME280;41486;52.502;13.486;2022-10-16T03:00:46;100700.81;;;15.29;100.00
55610;BME280;41486;52.502;13.486;2022-10-16T03:03:14;100706.97;;;15.29;100.00
55610;BME280;41486;52.502;13.486;2022-10-16T03:05:43;100704.00;;;15.33;100.00
55610;BME280;41486;52.502;13.486;2022-10-16T03:08:12;100704.31;;;15.29;100.00
55610;BME280;41486;52.502;13.486;2022-10-16T03:10:40;100702.22;;;15.33;100.00
55610;BME280;41486;52.502;13.486;2022-10-16T03:13:09;100713.09;;;15.30;100.00
55610;BME280;41486;52.502;13.486;2022-10-16T03:15:37;100714.41;;;15.16;100.00
55610;BME280;41486;52.502;13.486;2022-10-16T03:18:06;100729.66;;;15.04;100.00
55610;BME280;41486;52.502;13.486;2022-10-16T03:20:34;100724.78;;;14.99;100.00
55610;BME280;41486;52.502;13.486;2022-10-16T03:23:02;100721.41;;;15.07;100.00
55610;BME280;41486;52.502;13.486;2022-10-16T03:25:30;100730.06;;;15.09;100.00
55610;BME280;41486;52.502;13.486;2022-10-16T03:27:58;100726.06;;;14.95;100.00
55610;BME280;41486;52.502;13.486;2022-10-16T03:30:26;100720.72;;;15.05;100.00
55610;BME280;41486;52.502;13.486;2022-10-16T03:32:53;100730.28;;;14.78;100.00
55610;BME280;41486;52.502;13.486;2022-10-16T03:35:23;100726.78;;;14.78;100.00
55610;BME280;41486;52.502;13.486;2022-10-16T03:37:51;100737.69;;;14.55;100.00
55610;BME280;41486;52.502;13.486;2022-10-16T03:40:19;100746.56;;;14.64;100.00
55610;BME280;41486;52.502;13.486;2022-10-16T03:42:47;100752.59;;;14.56;100.00
55610;BME280;41486;52.502;13.486;2022-10-16T03:45:15;100760.94;;;14.61;100.00
55610;BME280;41486;52.502;13.486;2022-10-16T03:47:43;100750.78;;;14.66;100.00
55610;BME280;41486;52.502;13.486;2022-10-16T03:50:11;100749.75;;;14.97;100.00
55610;BME280;41486;52.502;13.486;2022-10-16T03:52:40;100758.03;;;14.74;100.00
55610;BME280;41486;52.502;13.486;2022-10-16T03:55:08;100769.31;;;14.66;100.00
55610;BME280;41486;52.502;13.486;2022-10-16T03:57:36;100773.53;;;14.69;100.00
55610;BME280;41486;52.502;13.486;2022-10-16T04:00:05;100765.84;;;14.66;100.00
55610;BME280;41486;52.502;13.486;2022-10-16T04:02:37;100774.63;;;14.47;100.00
55610;BME280;41486;52.502;13.486;2022-10-16T04:05:06;100772.94;;;14.46;100.00
55610;BME280;41486;52.502;13.486;2022-10-16T04:07:34;100771.25;;;14.45;100.00
55610;BME280;41486;52.502;13.486;2022-10-16T04:10:05;100779.19;;;14.55;100.00
55610;BME280;41486;52.502;13.486;2022-10-16T04:12:33;100777.28;;;14.37;100.00
55610;BME280;41486;52.502;13.486;2022-10-16T04:15:01;100784.63;;;14.63;100.00
55610;BME280;41486;52.502;13.486;2022-10-16T04:17:29;100795.00;;;14.66;100.00
55610;BME280;41486;52.502;13.486;2022-10-16T04:19:57;100790.66;;;14.45;100.00
55610;BME280;41486;52.502;13.486;2022-10-16T04:22:25;100781.59;;;14.48;100.00
55610;BME280;41486;52.502;13.486;2022-10-16T04:24:53;100797.19;;;14.41;100.00
55610;BME280;41486;52.502;13.486;2022-10-16T04:27:22;100789.25;;;14.61;100.00
55610;BME280;41486;52.502;13.486;2022-10-16T04:29:51;100788.13;;;14.34;100.00
55610;BME280;41486;52.502;13.486;2022-10-16T04:32:19;100791.75;;;14.33;100.00
55610;BME280;41486;52.502;13.486;2022-10-16T04:34:46;100784.22;;;14.48;100.00
55610;BME280;41486;52.502;13.486;2022-10-16T04:37:14;100781.72;;;14.36;100.00
55610;BME280;41486;52.502;13.486;2022-10-16T04:39:42;100783.94;;;14.31;100.00
55610;BME280;41486;52.502;13.486;2022-10-16T04:42:11;100775.00;;;14.23;100.00
55610;BME280;41486;52.502;13.486;2022-10-16T04:44:40;100765.38;;;14.12;100.00
55610;BME280;41486;52.502;13.486;2022-10-16T04:47:10;100759.69;;;13.97;100.00
55610;BME280;41486;52.502;13.486;2022-10-16T04:49:38;100767.72;;;13.95;100.00
55610;BME280;41486;52.502;13.486;2022-10-16T04:52:06;100773.03;;;13.95;100.00
55610;BME280;41486;52.502;13.486;2022-10-16T04:54:35;100785.69;;;13.92;100.00
55610;BME280;41486;52.502;13.486;2022-10-16T04:57:03;100777.34;;;13.96;100.00
55610;BME280;41486;52.502;13.486;2022-10-16T04:59:31;100774.13;;;13.93;100.00
55610;BME280;41486;52.502;13.486;2022-10-16T05:02:00;100771.63;;;13.81;100.00
55610;BME280;41486;52.502;13.486;2022-10-16T05:04:28;100783.13;;;13.70;100.00
55610;BME280;41486;52.502;13.486;2022-10-16T05:06:56;100797.84;;;13.63;100.00
55610;BME280;41486;52.502;13.486;2022-10-16T05:09:24;100806.72;;;13.52;100.00
55610;BME280;41486;52.502;13.486;2022-10-16T05:11:52;100813.44;;;13.56;100.00
55610;BME280;41486;52.502;13.486;2022-10-16T05:14:20;100820.13;;;13.61;100.00
55610;BME280;41486;52.502;13.486;2022-10-16T05:16:47;100824.22;;;13.75;100.00
55610;BME280;41486;52.502;13.486;2022-10-16T05:19:17;100820.03;;;13.72;100.00
55610;BME280;41486;52.502;13.486;2022-10-16T05:21:54;100821.81;;;13.71;100.00
55610;BME280;41486;52.502;13.486;2022-10-16T05:24:22;100825.97;;;13.64;100.00
55610;BME280;41486;52.502;13.486;2022-10-16T05:26:50;100826.09;;;13.63;100.00
55610;BME280;41486;52.502;13.486;2022-10-16T05:29:19;100828.75;;;13.63;100.00
55610;BME280;41486;52.502;13.486;2022-10-16T05:31:50;100818.50;;;13.69;100.00
55610;BME280;41486;52.502;13.486;2022-10-16T05:34:20;100825.84;;;13.66;100.00
55610;BME280;41486;52.502;13.486;2022-10-16T05:36:48;100833.19;;;13.62;100.00
55610;BME280;41486;52.502;13.486;2022-10-16T05:39:16;100815.00;;;13.69;100.00
55610;BME280;41486;52.502;13.486;2022-10-16T05:41:44;100818.59;;;13.68;100.00
55610;BME280;41486;52.502;13.486;2022-10-16T05:44:12;100829.00;;;13.60;100.00
55610;BME280;41486;52.502;13.486;2022-10-16T05:46:40;100827.69;;;13.44;100.00
55610;BME280;41486;52.502;13.486;2022-10-16T05:49:08;100831.97;;;13.66;100.00
55610;BME280;41486;52.502;13.486;2022-10-16T05:51:38;100841.78;;;13.85;100.00
55610;BME280;41486;52.502;13.486;2022-10-16T05:54:06;100847.97;;;13.65;100.00
55610;BME280;41486;52.502;13.486;2022-10-16T05:56:34;100841.41;;;13.59;100.00
55610;BME280;41486;52.502;13.486;2022-10-16T05:59:03;100842.63;;;13.55;100.00
55610;BME280;41486;52.502;13.486;2022-10-16T06:01:31;100839.28;;;13.53;100.00
55610;BME280;41486;52.502;13.486;2022-10-16T06:03:59;100836.75;;;13.51;100.00
55610;BME280;41486;52.502;13.486;2022-10-16T06:06:28;100843.72;;;13.52;100.00
55610;BME280;41486;52.502;13.486;2022-10-16T06:08:58;100838.91;;;13.57;100.00
55610;BME280;41486;52.502;13.486;2022-10-16T06:11:29;100839.72;;;13.58;100.00
55610;BME280;41486;52.502;13.486;2022-10-16T06:14:01;100849.47;;;13.57;100.00
55610;BME280;41486;52.502;13.486;2022-10-16T06:16:33;100848.75;;;13.55;100.00
55610;BME280;41486;52.502;13.486;2022-10-16T06:19:02;100854.94;;;13.66;100.00
55610;BME280;41486;52.502;13.486;2022-10-16T06:21:32;100857.84;;;13.63;100.00
55610;BME280;41486;52.502;13.486;2022-10-16T06:24:01;100856.31;;;13.60;100.00
55610;BME280;41486;52.502;13.486;2022-10-16T06:26:32;100867.34;;;13.75;100.00
55610;BME280;41486;52.502;13.486;2022-10-16T06:29:01;100870.31;;;13.82;100.00
55610;BME280;41486;52.502;13.486;2022-10-16T06:31:29;100849.53;;;13.77;100.00
55610;BME280;41486;52.502;13.486;2022-10-16T06:34:00;100858.44;;;13.76;100.00
55610;BME280;41486;52.502;13.486;2022-10-16T06:36:28;100861.97;;;13.86;100.00
55610;BME280;41486;52.502;13.486;2022-10-16T06:38:56;100874.06;;;13.79;100.00
55610;BME280;41486;52.502;13.486;2022-10-16T06:41:25;100877.81;;;13.77;100.00
55610;BME280;41486;52.502;13.486;2022-10-16T06:43:56;100884.91;;;13.76;100.00
55610;BME280;41486;52.502;13.486;2022-10-16T06:46:25;100889.25;;;13.87;100.00
55610;BME280;41486;52.502;13.486;2022-10-16T06:48:53;100894.84;;;13.94;100.00
55610;BME280;41486;52.502;13.486;2022-10-16T06:51:22;100900.88;;;13.96;100.00
55610;BME280;41486;52.502;13.486;2022-10-16T06:53:52;100890.84;;;13.99;100.00
55610;BME280;41486;52.502;13.486;2022-10-16T06:56:32;100892.53;;;14.00;100.00
55610;BME280;41486;52.502;13.486;2022-10-16T06:59:01;100896.16;;;14.09;100.00
55610;BME280;41486;52.502;13.486;2022-10-16T07:01:29;100895.06;;;14.12;100.00
55610;BME280;41486;52.502;13.486;2022-10-16T07:03:57;100900.09;;;14.15;100.00
55610;BME280;41486;52.502;13.486;2022-10-16T07:06:26;100896.06;;;14.20;100.00
55610;BME280;41486;52.502;13.486;2022-10-16T07:08:55;100905.44;;;14.34;100.00
55610;BME280;41486;52.502;13.486;2022-10-16T07:11:23;100901.25;;;14.32;100.00
55610;BME280;41486;52.502;13.486;2022-10-16T07:13:54;100910.47;;;14.47;100.00
55610;BME280;41486;52.502;13.486;2022-10-16T07:16:24;100907.50;;;14.72;100.00
55610;BME280;41486;52.502;13.486;2022-10-16T07:18:53;100918.66;;;14.75;100.00
55610;BME280;41486;52.502;13.486;2022-10-16T07:21:26;100922.41;;;14.82;100.00
55610;BME280;41486;52.502;13.486;2022-10-16T07:23:57;100920.06;;;14.89;100.00
55610;BME280;41486;52.502;13.486;2022-10-16T07:26:26;100920.88;;;14.99;100.00
55610;BME280;41486;52.502;13.486;2022-10-16T07:28:58;100912.63;;;15.22;100.00
55610;BME280;41486;52.502;13.486;2022-10-16T07:31:30;100927.97;;;15.19;100.00
55610;BME280;41486;52.502;13.486;2022-10-16T07:34:00;100927.00;;;15.20;100.00
55610;BME280;41486;52.502;13.486;2022-10-16T07:36:28;100928.13;;;15.27;100.00
55610;BME280;41486;52.502;13.486;2022-10-16T07:38:56;100914.16;;;15.35;100.00
55610;BME280;41486;52.502;13.486;2022-10-16T07:41:26;100906.34;;;15.43;100.00
55610;BME280;41486;52.502;13.486;2022-10-16T07:43:55;100915.97;;;15.44;100.00
55610;BME280;41486;52.502;13.486;2022-10-16T07:46:30;100919.13;;;15.57;100.00
55610;BME280;41486;52.502;13.486;2022-10-16T07:49:00;100926.28;;;15.57;100.00
55610;BME280;41486;52.502;13.486;2022-10-16T07:51:28;100928.06;;;15.56;100.00
55610;BME280;41486;52.502;13.486;2022-10-16T07:53:56;100913.53;;;15.70;100.00
55610;BME280;41486;52.502;13.486;2022-10-16T07:56:24;100916.72;;;15.74;100.00
55610;BME280;41486;52.502;13.486;2022-10-16T07:58:52;100930.25;;;15.90;100.00
55610;BME280;41486;52.502;13.486;2022-10-16T08:01:20;100917.28;;;15.77;100.00
55610;BME280;41486;52.502;13.486;2022-10-16T08:03:52;100908.47;;;15.87;100.00
55610;BME280;41486;52.502;13.486;2022-10-16T08:06:21;100927.88;;;15.87;100.00
55610;BME280;41486;52.502;13.486;2022-10-16T08:08:54;100937.38;;;15.90;100.00
55610;BME280;41486;52.502;13.486;2022-10-16T08:11:22;100937.72;;;16.05;100.00
55610;BME280;41486;52.502;13.486;2022-10-16T08:13:51;100945.25;;;16.09;100.00
55610;BME280;41486;52.502;13.486;2022-10-16T08:16:18;100957.56;;;16.11;100.00
55610;BME280;41486;52.502;13.486;2022-10-16T08:18:50;100967.03;;;16.13;100.00
55610;BME280;41486;52.502;13.486;2022-10-16T08:21:20;100967.00;;;16.23;100.00
55610;BME280;41486;52.502;13.486;2022-10-16T08:23:51;100954.72;;;16.22;100.00
55610;BME280;41486;52.502;13.486;2022-10-16T08:26:25;100950.72;;;16.36;100.00
55610;BME280;41486;52.502;13.486;2022-10-16T08:28:54;100956.13;;;16.44;100.00
55610;BME280;41486;52.502;13.486;2022-10-16T08:31:23;100956.22;;;16.52;100.00
55610;BME280;41486;52.502;13.486;2022-10-16T08:33:52;100957.91;;;16.53;100.00
55610;BME280;41486;52.502;13.486;2022-10-16T08:36:20;100960.94;;;16.59;100.00
55610;BME280;41486;52.502;13.486;2022-10-16T08:38:49;100967.38;;;16.56;100.00
55610;BME280;41486;52.502;13.486;2022-10-16T08:41:49;100965.72;;;16.55;100.00
55610;BME280;41486;52.502;13.486;2022-10-16T08:44:35;100965.00;;;16.63;100.00
55610;BME280;41486;52.502;13.486;2022-10-16T08:47:13;100967.19;;;16.67;100.00
55610;BME280;41486;52.502;13.486;2022-10-16T08:49:56;100966.56;;;16.55;100.00
55610;BME280;41486;52.502;13.486;2022-10-16T08:52:29;100964.53;;;16.67;100.00
55610;BME280;41486;52.502;13.486;2022-10-16T08:54:57;100969.75;;;16.59;100.00
55610;BME280;41486;52.502;13.486;2022-10-16T08:57:26;100965.22;;;16.69;100.00
55610;BME280;41486;52.502;13.486;2022-10-16T08:59:57;100973.28;;;16.78;100.00
55610;BME280;41486;52.502;13.486;2022-10-16T09:02:32;100976.78;;;16.78;100.00
55610;BME280;41486;52.502;13.486;2022-10-16T09:05:17;100980.66;;;16.66;100.00
55610;BME280;41486;52.502;13.486;2022-10-16T09:07:57;100990.50;;;16.74;100.00
55610;BME280;41486;52.502;13.486;2022-10-16T09:10:42;100988.19;;;16.88;100.00
55610;BME280;41486;52.502;13.486;2022-10-16T09:13:21;100986.78;;;17.12;100.00
55610;BME280;41486;52.502;13.486;2022-10-16T09:15:55;100995.38;;;17.24;100.00
55610;BME280;41486;52.502;13.486;2022-10-16T09:18:31;101005.16;;;17.24;100.00
55610;BME280;41486;52.502;13.486;2022-10-16T09:21:10;101006.09;;;17.32;100.00
55610;BME280;41486;52.502;13.486;2022-10-16T09:23:41;101012.47;;;17.40;100.00
55610;BME280;41486;52.502;13.486;2022-10-16T09:26:11;101010.03;;;17.46;100.00
55610;BME280;41486;52.502;13.486;2022-10-16T09:28:43;101002.56;;;17.50;100.00
55610;BME280;41486;52.502;13.486;2022-10-16T09:31:15;101002.88;;;17.47;100.00
55610;BME280;41486;52.502;13.486;2022-10-16T09:33:50;100999.53;;;17.45;100.00
55610;BME280;41486;52.502;13.486;2022-10-16T09:36:23;100994.91;;;17.47;100.00
55610;BME280;41486;52.502;13.486;2022-10-16T09:39:02;100998.59;;;17.54;100.00
55610;BME280;41486;52.502;13.486;2022-10-16T09:41:31;101004.22;;;17.51;100.00
55610;BME280;41486;52.502;13.486;2022-10-16T09:44:02;101008.25;;;17.55;100.00
55610;BME280;41486;52.502;13.486;2022-10-16T09:46:33;101016.41;;;17.54;100.00
55610;BME280;41486;52.502;13.486;2022-10-16T09:49:04;101019.66;;;17.65;100.00
55610;BME280;41486;52.502;13.486;2022-10-16T09:51:35;101017.34;;;17.71;100.00
55610;BME280;41486;52.502;13.486;2022-10-16T09:54:13;101031.13;;;17.66;100.00
55610;BME280;41486;52.502;13.486;2022-10-16T09:56:41;101034.66;;;17.75;100.00
55610;BME280;41486;52.502;13.486;2022-10-16T09:59:13;101032.88;;;17.75;100.00
55610;BME280;41486;52.502;13.486;2022-10-16T10:01:44;101040.94;;;17.65;100.00
55610;BME280;41486;52.502;13.486;2022-10-16T10:04:13;101042.91;;;17.63;100.00
55610;BME280;41486;52.502;13.486;2022-10-16T10:06:45;101034.53;;;17.76;100.00
55610;BME280;41486;52.502;13.486;2022-10-16T10:09:19;101029.75;;;17.80;100.00
55610;BME280;41486;52.502;13.486;2022-10-16T10:11:50;101043.09;;;17.88;100.00
55610;BME280;41486;52.502;13.486;2022-10-16T10:14:37;101052.88;;;17.97;100.00
55610;BME280;41486;52.502;13.486;2022-10-16T10:17:13;101054.56;;;18.07;99.38
55610;BME280;41486;52.502;13.486;2022-10-16T10:19:46;101044.13;;;18.13;99.43
55610;BME280;41486;52.502;13.486;2022-10-16T10:22:23;101051.22;;;18.31;97.98
55610;BME280;41486;52.502;13.486;2022-10-16T10:25:15;101049.75;;;18.37;96.94
55610;BME280;41486;52.502;13.486;2022-10-16T10:27:56;101053.41;;;18.36;97.58
55610;BME280;41486;52.502;13.486;2022-10-16T10:30:29;101060.03;;;18.32;96.19
55610;BME280;41486;52.502;13.486;2022-10-16T10:33:12;101060.69;;;18.25;96.47
55610;BME280;41486;52.502;13.486;2022-10-16T10:35:45;101057.72;;;18.28;95.73
55610;BME280;41486;52.502;13.486;2022-10-16T10:38:27;101062.28;;;18.44;95.66
55610;BME280;41486;52.502;13.486;2022-10-16T10:41:09;101074.25;;;18.40;95.32
55610;BME280;41486;52.502;13.486;2022-10-16T10:43:49;101080.41;;;18.41;95.89
55610;BME280;41486;52.502;13.486;2022-10-16T10:46:25;101078.94;;;18.47;94.70
55610;BME280;41486;52.502;13.486;2022-10-16T10:49:07;101066.22;;;18.67;93.00
55610;BME280;41486;52.502;13.486;2022-10-16T10:51:43;101076.44;;;18.80;92.34
55610;BME280;41486;52.502;13.486;2022-10-16T10:54:24;101075.91;;;18.76;90.54
55610;BME280;41486;52.502;13.486;2022-10-16T10:56:57;101064.56;;;18.74;89.37
55610;BME280;41486;52.502;13.486;2022-10-16T10:59:34;101078.91;;;18.73;88.44
55610;BME280;41486;52.502;13.486;2022-10-16T11:02:13;101078.56;;;18.68;88.69
55610;BME280;41486;52.502;13.486;2022-10-16T11:05:05;101075.28;;;18.82;88.36
55610;BME280;41486;52.502;13.486;2022-10-16T11:07:49;101070.41;;;19.20;86.67
55610;BME280;41486;52.502;13.486;2022-10-16T11:10:24;101073.78;;;19.39;84.20
55610;BME280;41486;52.502;13.486;2022-10-16T11:12:58;101086.16;;;19.65;82.92
55610;BME280;41486;52.502;13.486;2022-10-16T11:15:29;101086.16;;;19.81;81.44
55610;BME280;41486;52.502;13.486;2022-10-16T11:18:03;101082.81;;;19.79;80.48
55610;BME280;41486;52.502;13.486;2022-10-16T11:20:34;101093.16;;;19.74;78.48
55610;BME280;41486;52.502;13.486;2022-10-16T11:23:09;101088.81;;;19.65;78.63
55610;BME280;41486;52.502;13.486;2022-10-16T11:25:40;101095.97;;;19.56;78.48
55610;BME280;41486;52.502;13.486;2022-10-16T11:28:11;101076.94;;;19.51;78.52
55610;BME280;41486;52.502;13.486;2022-10-16T11:30:46;101079.09;;;19.39;77.63
55610;BME280;41486;52.502;13.486;2022-10-16T11:33:24;101087.28;;;19.37;77.41
55610;BME280;41486;52.502;13.486;2022-10-16T11:36:00;101088.94;;;19.55;76.54
55610;BME280;41486;52.502;13.486;2022-10-16T11:38:34;101086.31;;;19.47;77.00
55610;BME280;41486;52.502;13.486;2022-10-16T11:41:15;101078.63;;;19.68;75.78
55610;BME280;41486;52.502;13.486;2022-10-16T11:43:49;101079.13;;;19.80;74.53
55610;BME280;41486;52.502;13.486;2022-10-16T11:46:21;101078.13;;;20.14;72.97
55610;BME280;41486;52.502;13.486;2022-10-16T11:48:56;101067.78;;;20.11;71.51
55610;BME280;41486;52.502;13.486;2022-10-16T11:51:32;101077.44;;;20.21;71.22
55610;BME280;41486;52.502;13.486;2022-10-16T11:54:05;101077.47;;;20.12;71.83
55610;BME280;41486;52.502;13.486;2022-10-16T11:56:39;101084.50;;;19.97;70.81
55610;BME280;41486;52.502;13.486;2022-10-16T11:59:15;101092.00;;;19.93;70.20
55610;BME280;41486;52.502;13.486;2022-10-16T12:01:49;101096.84;;;19.90;70.73
55610;BME280;41486;52.502;13.486;2022-10-16T12:04:24;101087.94;;;20.22;69.34
55610;BME280;41486;52.502;13.486;2022-10-16T12:06:58;101092.25;;;20.48;68.14
55610;BME280;41486;52.502;13.486;2022-10-16T12:09:29;101098.47;;;20.15;66.47
55610;BME280;41486;52.502;13.486;2022-10-16T12:11:59;101102.81;;;20.16;66.82
55610;BME280;41486;52.502;13.486;2022-10-16T12:14:37;101108.66;;;20.12;66.46
55610;BME280;41486;52.502;13.486;2022-10-16T12:17:27;101105.84;;;21.41;62.79
55610;BME280;41486;52.502;13.486;2022-10-16T12:20:20;101119.53;;;23.21;53.50
55610;BME280;41486;52.502;13.486;2022-10-16T12:22:51;101117.59;;;25.13;47.73
55610;BME280;41486;52.502;13.486;2022-10-16T12:25:22;101120.34;;;25.33;46.10
55610;BME280;41486;52.502;13.486;2022-10-16T12:27:57;101115.25;;;26.26;43.70
55610;BME280;41486;52.502;13.486;2022-10-16T12:30:28;101128.00;;;26.64;42.89
55610;BME280;41486;52.502;13.486;2022-10-16T12:33:02;101124.19;;;26.26;43.33
55610;BME280;41486;52.502;13.486;2022-10-16T12:35:33;101124.78;;;24.57;47.99
55610;BME280;41486;52.502;13.486;2022-10-16T12:38:06;101126.47;;;25.82;44.85
55610;BME280;41486;52.502;13.486;2022-10-16T12:40:37;101125.41;;;26.37;43.31
55610;BME280;41486;52.502;13.486;2022-10-16T12:43:28;101138.56;;;26.72;42.56
55610;BME280;41486;52.502;13.486;2022-10-16T12:46:01;101130.72;;;26.64;42.26
55610;BME280;41486;52.502;13.486;2022-10-16T12:48:30;101124.19;;;26.06;42.94
55610;BME280;41486;52.502;13.486;2022-10-16T12:51:24;101133.72;;;26.29;43.68
55610;BME280;41486;52.502;13.486;2022-10-16T12:53:59;101136.34;;;24.80;47.71
55610;BME280;41486;52.502;13.486;2022-10-16T12:56:36;101134.44;;;24.73;47.45